createdAt,value
2019-05-10T00:02:10.749Z,84.81
2019-05-10T00:04:55.652Z,84.59
2019-05-10T00:07:42.838Z,84.43
2019-05-10T00:10:09.026Z,84.68
2019-05-10T00:12:46.171Z,84.84
2019-05-10T00:15:13.755Z,84.60
2019-05-10T00:17:40.087Z,84.80
2019-05-10T00:20:06.564Z,85.12
2019-05-10T00:22:32.825Z,84.95
2019-05-10T00:25:04.824Z,85.11
2019-05-10T00:27:29.189Z,85.11
2019-05-10T00:29:55.355Z,85.11
2019-05-10T00:32:21.463Z,85.36
2019-05-10T00:34:48.311Z,85.35
2019-05-10T00:37:18.394Z,85.33
2019-05-10T00:39:44.597Z,85.28
2019-05-10T00:42:10.961Z,85.59
2019-05-10T00:44:39.913Z,85.67
2019-05-10T00:47:09.052Z,85.39
2019-05-10T00:49:35.401Z,85.50
2019-05-10T00:52:01.639Z,85.34
2019-05-10T00:54:27.969Z,85.19
2019-05-10T00:56:54.317Z,85.31
2019-05-10T00:59:20.568Z,85.38
2019-05-10T01:01:47.203Z,85.27
2019-05-10T01:04:13.388Z,85.13
2019-05-10T01:06:39.736Z,84.94
2019-05-10T01:09:08.367Z,84.86
2019-05-10T01:11:34.706Z,84.71
2019-05-10T01:14:01.135Z,84.08
2019-05-10T01:16:27.443Z,84.07
2019-05-10T01:18:53.669Z,84.01
2019-05-10T01:21:22.961Z,83.88
2019-05-10T01:23:49.505Z,83.92
2019-05-10T01:26:15.806Z,83.79
2019-05-10T01:28:42.223Z,83.97
2019-05-10T01:31:08.695Z,83.68
2019-05-10T01:33:35.973Z,83.64
2019-05-10T01:36:02.101Z,83.58
2019-05-10T01:38:28.237Z,83.46
2019-05-10T01:40:54.346Z,83.19
2019-05-10T01:43:20.549Z,83.21
2019-05-10T01:45:46.769Z,83.45
2019-05-10T01:48:13.885Z,83.55
2019-05-10T01:50:40.601Z,83.23
2019-05-10T01:53:06.838Z,83.22
2019-05-10T01:55:32.984Z,83.25
2019-05-10T01:57:59.197Z,83.22
2019-05-10T02:00:25.753Z,83.22
2019-05-10T02:02:52.056Z,83.60
2019-05-10T02:05:18.805Z,83.75
2019-05-10T02:07:46.199Z,83.53
2019-05-10T02:10:13.024Z,83.62
2019-05-10T02:12:39.248Z,83.66
2019-05-10T02:15:06.555Z,83.83
2019-05-10T02:17:32.807Z,83.45
2019-05-10T02:20:00.846Z,83.61
2019-05-10T02:22:27.060Z,83.59
2019-05-10T02:24:53.247Z,82.92
2019-05-10T02:27:19.539Z,82.94
2019-05-10T02:29:45.694Z,83.02
2019-05-10T02:32:12.222Z,82.95
2019-05-10T02:34:38.739Z,82.78
2019-05-10T02:37:06.074Z,82.55
2019-05-10T02:39:32.410Z,82.28
2019-05-10T02:41:58.653Z,82.22
2019-05-10T02:44:24.891Z,81.78
2019-05-10T02:46:51.133Z,81.90
2019-05-10T02:49:17.238Z,82.13
2019-05-10T02:51:43.555Z,81.96
2019-05-10T02:54:09.928Z,82.16
2019-05-10T02:56:37.175Z,81.71
2019-05-10T02:59:04.595Z,81.52
2019-05-10T03:01:30.745Z,81.78
2019-05-10T03:04:00.575Z,81.96
2019-05-10T03:06:28.779Z,80.80
2019-05-10T03:08:55.143Z,80.78
2019-05-10T03:11:21.500Z,80.39
2019-05-10T03:13:50.402Z,79.98
2019-05-10T03:16:20.904Z,80.17
2019-05-10T03:18:50.097Z,80.24
2019-05-10T03:21:16.551Z,80.85
2019-05-10T03:23:42.820Z,81.14
2019-05-10T03:26:09.113Z,80.66
2019-05-10T03:28:35.310Z,80.23
2019-05-10T03:31:01.604Z,80.87
2019-05-10T03:33:27.934Z,81.35
2019-05-10T03:35:54.316Z,81.09
2019-05-10T03:38:20.940Z,81.50
2019-05-10T03:40:47.204Z,81.69
2019-05-10T03:43:13.407Z,81.24
2019-05-10T03:45:39.520Z,80.83
2019-05-10T03:48:05.751Z,81.01
2019-05-10T03:50:31.885Z,81.05
2019-05-10T03:52:58.466Z,80.24
2019-05-10T03:55:24.834Z,81.22
2019-05-10T03:57:51.091Z,81.42
2019-05-10T04:00:17.637Z,82.02
2019-05-10T04:02:43.975Z,82.35
2019-05-10T04:05:10.417Z,82.41
2019-05-10T04:07:36.756Z,82.51
2019-05-10T04:10:04.662Z,82.52
2019-05-10T04:12:31.184Z,83.33
2019-05-10T04:14:57.453Z,83.65
2019-05-10T04:17:24.761Z,83.66
2019-05-10T04:19:51.197Z,83.72
2019-05-10T04:22:17.423Z,83.63
2019-05-10T04:24:43.776Z,83.05
2019-05-10T04:27:10.023Z,82.46
2019-05-10T04:29:36.352Z,81.80
2019-05-10T04:32:02.693Z,81.69
2019-05-10T04:34:28.840Z,81.83
2019-05-10T04:36:55.208Z,81.90
2019-05-10T04:39:21.420Z,81.94
2019-05-10T04:41:47.729Z,81.62
2019-05-10T04:44:13.981Z,82.13
2019-05-10T04:46:40.271Z,82.48
2019-05-10T04:49:06.381Z,82.37
2019-05-10T04:51:32.729Z,82.24
2019-05-10T04:53:58.890Z,82.38
2019-05-10T04:56:25.137Z,82.25
2019-05-10T04:58:51.484Z,82.22
2019-05-10T05:01:17.846Z,82.26
2019-05-10T05:03:44.126Z,82.36
2019-05-10T05:06:10.252Z,82.24
2019-05-10T05:08:36.383Z,82.15
2019-05-10T05:11:02.748Z,82.08
2019-05-10T05:13:28.974Z,82.48
2019-05-10T05:15:55.376Z,81.76
2019-05-10T05:18:21.843Z,82.80
2019-05-10T05:20:48.153Z,82.65
2019-05-10T05:23:14.533Z,82.26
2019-05-10T05:25:41.923Z,82.38
2019-05-10T05:28:09.162Z,82.17
2019-05-10T05:30:38.651Z,81.26
2019-05-10T05:33:03.881Z,81.55
2019-05-10T05:35:30.212Z,81.63
2019-05-10T05:37:56.643Z,81.58
2019-05-10T05:40:22.954Z,80.99
2019-05-10T05:42:49.281Z,81.12
2019-05-10T05:45:15.697Z,80.83
2019-05-10T05:47:44.632Z,81.46
2019-05-10T05:50:10.411Z,81.01
2019-05-10T05:52:36.524Z,80.79
2019-05-10T05:55:05.354Z,80.72
2019-05-10T05:57:31.639Z,80.17
2019-05-10T06:00:04.246Z,80.22
2019-05-10T06:02:27.171Z,80.33
2019-05-10T06:04:54.457Z,80.39
2019-05-10T06:07:20.676Z,80.55
2019-05-10T06:09:46.882Z,80.20
2019-05-10T06:12:14.302Z,80.65
2019-05-10T06:14:42.999Z,81.34
2019-05-10T06:17:08.962Z,80.64
2019-05-10T06:19:35.279Z,81.01
2019-05-10T06:22:04.660Z,82.33
2019-05-10T06:24:29.747Z,82.27
2019-05-10T06:26:58.208Z,82.53
2019-05-10T06:29:24.175Z,81.81
2019-05-10T06:31:50.400Z,82.27
2019-05-10T06:34:17.072Z,82.06
2019-05-10T06:36:43.414Z,82.29
2019-05-10T06:39:09.773Z,81.30
2019-05-10T06:41:35.986Z,81.59
2019-05-10T06:44:02.330Z,80.98
2019-05-10T06:46:29.675Z,81.43
2019-05-10T06:49:07.208Z,81.11
2019-05-10T06:51:25.353Z,80.56
2019-05-10T06:53:53.778Z,80.87
2019-05-10T06:56:19.887Z,81.17
2019-05-10T06:58:46.103Z,80.90
2019-05-10T07:01:12.436Z,80.28
2019-05-10T07:03:38.682Z,80.91
2019-05-10T07:06:04.819Z,80.55
2019-05-10T07:08:43.269Z,80.18
2019-05-10T07:10:59.240Z,80.89
2019-05-10T07:13:25.621Z,80.83
2019-05-10T07:15:52.799Z,80.79
2019-05-10T07:18:22.618Z,79.83
2019-05-10T07:20:47.480Z,79.58
2019-05-10T07:23:13.635Z,79.41
2019-05-10T07:25:43.867Z,78.96
2019-05-10T07:28:09.277Z,78.68
2019-05-10T07:30:36.666Z,79.02
2019-05-10T07:33:03.764Z,78.98
2019-05-10T07:35:30.889Z,79.48
2019-05-10T07:37:58.488Z,79.57
2019-05-10T07:40:25.000Z,79.13
2019-05-10T07:42:51.225Z,78.85
2019-05-10T07:45:18.910Z,78.89
2019-05-10T07:47:46.039Z,79.69
2019-05-10T07:50:13.651Z,77.74
2019-05-10T07:52:43.642Z,78.10
2019-05-10T07:55:10.357Z,78.19
2019-05-10T07:57:36.574Z,78.58
2019-05-10T08:00:06.106Z,78.76
2019-05-10T08:02:32.943Z,77.38
2019-05-10T08:04:59.291Z,76.93
2019-05-10T08:07:25.641Z,77.31
2019-05-10T08:09:51.768Z,77.55
2019-05-10T08:12:19.513Z,76.94
2019-05-10T08:14:51.882Z,77.37
2019-05-10T08:17:14.259Z,76.07
2019-05-10T08:19:40.633Z,76.60
2019-05-10T08:22:09.498Z,76.26
2019-05-10T08:24:35.697Z,75.08
2019-05-10T08:27:07.975Z,76.55
2019-05-10T08:29:32.867Z,75.74
2019-05-10T08:31:58.649Z,76.19
2019-05-10T08:34:28.863Z,76.88
2019-05-10T08:36:53.037Z,76.82
2019-05-10T08:39:22.345Z,75.02
2019-05-10T08:42:03.688Z,76.00
2019-05-10T08:44:20.957Z,75.29
2019-05-10T08:46:46.405Z,75.29
2019-05-10T08:49:13.031Z,75.03
2019-05-10T08:51:43.796Z,75.33
2019-05-10T08:54:07.717Z,75.69
2019-05-10T08:56:33.949Z,75.68
2019-05-10T08:59:03.083Z,74.20
2019-05-10T09:01:30.668Z,74.63
2019-05-10T09:04:00.818Z,74.23
2019-05-10T09:06:24.863Z,74.69
2019-05-10T09:08:52.930Z,74.16
2019-05-10T09:11:19.552Z,74.43
2019-05-10T09:13:46.424Z,74.04
2019-05-10T09:16:13.619Z,73.61
2019-05-10T09:18:46.120Z,72.16
2019-05-10T09:21:10.579Z,73.06
2019-05-10T09:23:36.578Z,70.42
2019-05-10T09:26:10.317Z,67.70
2019-05-10T09:28:32.195Z,67.78
2019-05-10T09:31:15.269Z,66.31
2019-05-10T09:33:28.058Z,64.39
2019-05-10T09:35:55.199Z,65.00
2019-05-10T09:38:22.220Z,63.50
2019-05-10T09:40:52.723Z,61.09
2019-05-10T09:43:16.616Z,61.20
2019-05-10T09:45:42.960Z,63.94
2019-05-10T09:48:11.874Z,63.94
2019-05-10T09:50:44.062Z,63.01
2019-05-10T09:53:07.393Z,64.99
2019-05-10T09:55:34.092Z,63.24
2019-05-10T09:58:00.497Z,63.57
2019-05-10T10:00:32.848Z,64.60
2019-05-10T10:03:01.569Z,64.22
2019-05-10T10:05:27.916Z,65.31
2019-05-10T10:07:54.248Z,65.31
2019-05-10T10:10:28.555Z,63.68
2019-05-10T10:12:49.002Z,65.54
2019-05-10T10:15:28.352Z,65.54
2019-05-10T10:17:43.760Z,66.19
2019-05-10T10:20:10.126Z,63.71
2019-05-10T10:22:38.119Z,65.39
2019-05-10T10:25:07.387Z,64.54
2019-05-10T10:27:36.091Z,66.52
2019-05-10T10:30:06.547Z,65.78
2019-05-10T10:32:34.891Z,64.30
2019-05-10T10:35:02.877Z,64.30
2019-05-10T10:37:31.328Z,61.71
2019-05-10T10:40:03.066Z,62.66
2019-05-10T10:42:25.817Z,62.52
2019-05-10T10:44:52.038Z,65.28
2019-05-10T10:47:22.846Z,63.16
2019-05-10T10:49:46.817Z,63.86
2019-05-10T10:52:13.601Z,63.27
2019-05-10T10:54:40.102Z,60.38
2019-05-10T10:57:08.038Z,59.10
2019-05-10T10:59:34.415Z,61.10
2019-05-10T11:02:27.196Z,59.44
2019-05-10T11:04:28.600Z,58.45
2019-05-10T11:07:09.344Z,57.92
2019-05-10T11:09:22.768Z,58.82
2019-05-10T11:11:51.107Z,56.95
2019-05-10T11:14:17.121Z,58.97
2019-05-10T11:16:46.815Z,59.40
2019-05-10T11:19:15.483Z,58.63
2019-05-10T11:21:41.483Z,58.57
2019-05-10T11:24:10.226Z,60.21
2019-05-10T11:26:37.059Z,58.25
2019-05-10T11:29:03.402Z,58.18
2019-05-10T11:31:31.158Z,55.06
2019-05-10T11:34:00.919Z,59.64
2019-05-10T11:36:25.859Z,58.63
2019-05-10T11:38:58.270Z,59.58
2019-05-10T11:41:23.768Z,62.16
2019-05-10T11:43:48.184Z,58.53
2019-05-10T11:46:14.417Z,59.47
2019-05-10T11:48:42.124Z,57.13
2019-05-10T11:51:12.249Z,57.11
2019-05-10T11:53:36.945Z,59.75
2019-05-10T11:56:07.942Z,60.07
2019-05-10T11:58:37.580Z,59.53
2019-05-10T12:01:03.176Z,60.13
2019-05-10T12:03:27.688Z,58.61
2019-05-10T12:06:04.451Z,57.46
2019-05-10T12:08:22.395Z,57.02
2019-05-10T12:11:07.148Z,53.19
2019-05-10T12:13:20.833Z,54.03
2019-05-10T12:15:46.113Z,54.85
2019-05-10T12:18:14.757Z,56.37
2019-05-10T12:20:54.072Z,55.64
2019-05-10T12:23:13.504Z,57.06
2019-05-10T12:25:51.081Z,57.83
2019-05-10T12:28:05.163Z,58.40
2019-05-10T12:30:35.078Z,57.83
2019-05-10T12:33:08.985Z,57.16
2019-05-10T12:35:35.693Z,58.21
2019-05-10T12:37:56.011Z,55.47
2019-05-10T12:40:24.133Z,56.81
2019-05-10T12:42:50.649Z,59.18
2019-05-10T12:45:17.423Z,55.37
2019-05-10T12:47:43.748Z,54.39
2019-05-10T12:50:10.695Z,56.61
2019-05-10T12:52:37.044Z,54.62
2019-05-10T12:55:05.219Z,55.51
2019-05-10T12:57:31.449Z,53.98
2019-05-10T12:59:57.734Z,55.58
2019-05-10T13:02:24.043Z,53.82
2019-05-10T13:04:52.721Z,55.49
2019-05-10T13:07:18.593Z,54.84
2019-05-10T13:09:44.885Z,52.36
2019-05-10T13:12:11.124Z,50.53
2019-05-10T13:14:40.038Z,50.81
2019-05-10T13:17:10.039Z,49.58
2019-05-10T13:19:34.107Z,45.94
2019-05-10T13:22:00.799Z,45.27
2019-05-10T13:24:27.373Z,49.91
2019-05-10T13:26:53.773Z,50.03
2019-05-10T13:29:20.163Z,54.67
2019-05-10T13:31:47.484Z,57.49
2019-05-10T13:34:13.842Z,56.75
2019-05-10T13:36:39.953Z,57.00
2019-05-10T13:39:06.345Z,57.85
2019-05-10T13:41:32.573Z,56.06
2019-05-10T13:44:04.373Z,56.24
2019-05-10T13:46:27.153Z,54.86
2019-05-10T13:48:53.993Z,60.55
2019-05-10T13:51:21.568Z,55.10
2019-05-10T13:53:47.943Z,55.85
2019-05-10T13:56:14.490Z,55.07
2019-05-10T13:58:40.793Z,56.35
2019-05-10T14:01:12.963Z,57.95
2019-05-10T14:03:43.649Z,58.37
2019-05-10T14:06:03.481Z,54.93
2019-05-10T14:08:29.863Z,55.87
2019-05-10T14:11:01.397Z,54.99
2019-05-10T14:13:24.180Z,54.80
2019-05-10T14:15:50.579Z,57.20
2019-05-10T14:18:17.005Z,55.22
2019-05-10T14:20:43.360Z,54.22
2019-05-10T14:23:09.731Z,54.27
2019-05-10T14:25:38.766Z,55.03
2019-05-10T14:28:09.755Z,54.92
2019-05-10T14:30:32.856Z,55.88
2019-05-10T14:32:59.011Z,57.09
2019-05-10T14:35:25.285Z,56.13
2019-05-10T14:37:51.694Z,55.08
2019-05-10T14:40:27.987Z,55.18
2019-05-10T14:42:46.396Z,55.75
2019-05-10T14:45:13.146Z,56.61
2019-05-10T14:47:48.031Z,56.67
2019-05-10T14:50:09.144Z,57.26
2019-05-10T14:52:35.375Z,56.88
2019-05-10T14:55:02.740Z,56.92
2019-05-10T14:57:29.335Z,56.14
2019-05-10T14:59:55.563Z,58.10
2019-05-10T15:02:23.044Z,57.02
2019-05-10T15:04:50.117Z,56.61
2019-05-10T15:07:16.738Z,57.63
2019-05-10T15:09:43.269Z,56.73
2019-05-10T15:12:10.090Z,57.19
2019-05-10T15:14:37.681Z,57.03
2019-05-10T15:17:04.132Z,55.00
2019-05-10T15:19:31.364Z,56.35
2019-05-10T15:21:58.049Z,54.47
2019-05-10T15:24:24.418Z,54.71
2019-05-10T15:26:50.941Z,55.65
2019-05-10T15:29:22.500Z,55.09
2019-05-10T15:31:45.472Z,57.25
2019-05-10T15:34:11.756Z,56.93
2019-05-10T15:36:38.188Z,55.42
2019-05-10T15:39:06.162Z,57.48
2019-05-10T15:41:32.551Z,56.67
2019-05-10T15:43:58.791Z,56.67
2019-05-10T15:46:36.175Z,58.36
2019-05-10T15:48:53.329Z,59.00
2019-05-10T15:51:34.110Z,58.03
2019-05-10T15:53:47.890Z,57.89
2019-05-10T15:56:14.497Z,56.56
2019-05-10T15:58:42.578Z,56.56
2019-05-10T16:01:09.230Z,57.01
2019-05-10T16:03:35.379Z,57.63
2019-05-10T16:06:02.975Z,59.75
2019-05-10T16:08:30.221Z,59.52
2019-05-10T16:10:57.312Z,58.74
2019-05-10T16:13:25.176Z,59.51
2019-05-10T16:15:57.467Z,59.67
2019-05-10T16:18:20.064Z,59.67
2019-05-10T16:20:46.405Z,59.23
2019-05-10T16:23:12.748Z,60.55
2019-05-10T16:25:42.911Z,61.06
2019-05-10T16:28:07.355Z,63.87
2019-05-10T16:30:36.404Z,63.87
2019-05-10T16:33:01.609Z,63.42
2019-05-10T16:35:38.394Z,63.42
2019-05-10T16:37:56.525Z,61.11
2019-05-10T16:40:23.020Z,60.56
2019-05-10T16:42:49.433Z,60.11
2019-05-10T16:45:15.997Z,60.11
2019-05-10T16:47:42.315Z,59.34
2019-05-10T16:50:09.065Z,58.87
2019-05-10T16:52:35.296Z,60.14
2019-05-10T16:55:03.636Z,59.67
2019-05-10T16:57:31.911Z,59.64
2019-05-10T17:00:01.988Z,58.38
2019-05-10T17:02:26.666Z,58.38
2019-05-10T17:04:52.923Z,59.75
2019-05-10T17:07:20.667Z,59.28
2019-05-10T17:09:49.431Z,59.57
2019-05-10T17:12:15.678Z,59.00
2019-05-10T17:14:42.059Z,59.00
2019-05-10T17:17:08.402Z,59.34
2019-05-10T17:19:36.160Z,59.14
2019-05-10T17:22:02.655Z,60.03
2019-05-10T17:24:29.003Z,58.70
2019-05-10T17:26:55.369Z,60.56
2019-05-10T17:29:21.813Z,60.56
2019-05-10T17:31:48.040Z,60.65
2019-05-10T17:34:22.103Z,60.94
2019-05-10T17:36:42.748Z,62.26
2019-05-10T17:39:12.292Z,62.27
2019-05-10T17:41:38.537Z,62.27
2019-05-10T17:44:05.042Z,62.92
2019-05-10T17:46:31.374Z,61.96
2019-05-10T17:48:57.924Z,62.10
2019-05-10T17:51:24.515Z,63.11
2019-05-10T17:53:55.069Z,62.78
2019-05-10T17:56:19.185Z,63.53
2019-05-10T17:58:45.558Z,63.70
2019-05-10T18:01:11.906Z,63.51
2019-05-10T18:03:38.433Z,63.49
2019-05-10T18:06:05.132Z,65.16
2019-05-10T18:08:31.601Z,63.62
2019-05-10T18:11:03.973Z,64.94
2019-05-10T18:13:26.400Z,68.11
2019-05-10T18:15:53.046Z,69.63
2019-05-10T18:18:19.472Z,71.56
2019-05-10T18:20:45.931Z,71.28
2019-05-10T18:23:20.360Z,74.25
2019-05-10T18:25:40.529Z,74.25
2019-05-10T18:28:09.966Z,75.40
2019-05-10T18:30:36.368Z,76.37
2019-05-10T18:33:06.856Z,76.29
2019-05-10T18:35:31.157Z,77.22
2019-05-10T18:37:59.560Z,75.03
2019-05-10T18:40:31.763Z,75.34
2019-05-10T18:42:57.967Z,74.66
2019-05-10T18:45:23.381Z,75.73
2019-05-10T18:47:50.154Z,74.16
2019-05-10T18:50:16.484Z,76.68
2019-05-10T18:52:42.903Z,74.96
2019-05-10T18:55:09.478Z,75.75
2019-05-10T18:57:35.717Z,75.08
2019-05-10T19:00:03.975Z,74.46
2019-05-10T19:02:30.438Z,74.39
2019-05-10T19:04:56.816Z,72.85
2019-05-10T19:07:23.248Z,73.06
2019-05-10T19:09:49.554Z,73.14
2019-05-10T19:12:18.727Z,76.44
2019-05-10T19:14:44.206Z,77.28
2019-05-10T19:17:11.131Z,75.58
2019-05-10T19:19:41.932Z,76.06
2019-05-10T19:22:08.963Z,75.47
2019-05-10T19:24:36.071Z,73.63
2019-05-10T19:27:07.289Z,76.98
2019-05-10T19:29:31.976Z,77.17
2019-05-10T19:31:58.321Z,76.53
2019-05-10T19:34:24.548Z,76.63
2019-05-10T19:36:51.159Z,76.57
2019-05-10T19:39:17.599Z,77.32
2019-05-10T19:41:43.954Z,76.11
2019-05-10T19:44:10.147Z,77.75
2019-05-10T19:46:39.474Z,80.55
2019-05-10T19:49:07.521Z,81.06
2019-05-10T19:51:33.075Z,80.16
2019-05-10T19:53:59.309Z,79.80
2019-05-10T19:56:29.962Z,78.99
2019-05-10T19:58:53.532Z,78.74
2019-05-10T20:01:19.920Z,80.55
2019-05-10T20:03:46.402Z,79.61
2019-05-10T20:06:12.695Z,79.73
2019-05-10T20:08:40.064Z,80.75
2019-05-10T20:11:06.454Z,80.64
2019-05-10T20:13:33.007Z,82.19
2019-05-10T20:16:01.458Z,81.43
2019-05-10T20:18:27.642Z,80.68
2019-05-10T20:20:54.110Z,80.47
2019-05-10T20:23:20.359Z,79.50
2019-05-10T20:25:46.793Z,79.27
2019-05-10T20:28:13.210Z,78.68
2019-05-10T20:30:39.578Z,78.33
2019-05-10T20:33:05.756Z,77.31
2019-05-10T20:35:32.252Z,76.68
2019-05-10T20:38:01.829Z,76.73
2019-05-10T20:40:27.003Z,77.44
2019-05-10T20:42:54.455Z,77.81
2019-05-10T20:45:20.832Z,78.71
2019-05-10T20:47:47.109Z,80.64
2019-05-10T20:50:14.151Z,80.65
2019-05-10T20:52:40.455Z,80.73
2019-05-10T20:55:07.384Z,81.20
2019-05-10T20:57:33.804Z,82.13
2019-05-10T21:00:00.274Z,81.82
2019-05-10T21:02:26.799Z,81.14
2019-05-10T21:04:53.236Z,80.62
2019-05-10T21:07:19.652Z,80.27
2019-05-10T21:09:46.011Z,80.09
2019-05-10T21:12:13.472Z,79.35
2019-05-10T21:14:39.727Z,79.21
2019-05-10T21:17:05.964Z,78.74
2019-05-10T21:19:32.358Z,78.14
2019-05-10T21:21:58.844Z,77.67
2019-05-10T21:24:25.240Z,77.92
2019-05-10T21:26:51.633Z,79.94
2019-05-10T21:29:18.098Z,79.82
2019-05-10T21:31:44.539Z,80.05
2019-05-10T21:34:10.968Z,80.36
2019-05-10T21:36:37.306Z,79.75
2019-05-10T21:39:05.811Z,81.26
2019-05-10T21:41:32.335Z,81.16
2019-05-10T21:43:58.686Z,80.45
2019-05-10T21:46:25.047Z,80.70
2019-05-10T21:48:51.281Z,81.93
2019-05-10T21:51:17.438Z,81.73
2019-05-10T21:53:43.675Z,81.41
2019-05-10T21:56:09.979Z,82.33
2019-05-10T21:58:36.335Z,82.73
2019-05-10T22:01:03.168Z,82.35
2019-05-10T22:03:31.367Z,83.10
2019-05-10T22:05:57.605Z,82.69
2019-05-10T22:08:23.840Z,82.80
2019-05-10T22:10:50.078Z,82.42
2019-05-10T22:13:16.320Z,82.04
2019-05-10T22:15:42.687Z,82.07
2019-05-10T22:18:09.036Z,81.97
2019-05-10T22:20:35.357Z,81.45
2019-05-10T22:23:01.738Z,81.08
2019-05-10T22:25:28.003Z,80.86
2019-05-10T22:27:54.092Z,80.50
2019-05-10T22:30:20.448Z,81.63
2019-05-10T22:32:46.709Z,82.20
2019-05-10T22:35:13.278Z,82.83
2019-05-10T22:37:39.688Z,82.81
2019-05-10T22:40:06.122Z,82.63
2019-05-10T22:42:32.355Z,82.41
2019-05-10T22:44:58.598Z,82.41
2019-05-10T22:47:25.526Z,82.32
2019-05-10T22:49:52.055Z,82.53
2019-05-10T22:52:18.363Z,82.50
2019-05-10T22:54:44.730Z,82.72
2019-05-10T22:57:11.104Z,82.55
2019-05-10T22:59:37.430Z,82.62
2019-05-10T23:02:03.782Z,82.95
2019-05-10T23:04:30.103Z,83.51
2019-05-10T23:06:56.289Z,83.41
2019-05-10T23:09:24.948Z,82.78
2019-05-10T23:11:50.637Z,82.48
2019-05-10T23:14:17.913Z,82.68
2019-05-10T23:16:44.036Z,82.86
2019-05-10T23:19:10.242Z,82.77
2019-05-10T23:21:36.349Z,82.51
2019-05-10T23:24:04.554Z,82.32
2019-05-10T23:26:30.792Z,83.17
2019-05-10T23:28:56.999Z,82.92
2019-05-10T23:31:23.183Z,83.51
2019-05-10T23:33:49.447Z,82.29
2019-05-10T23:36:15.787Z,82.28
2019-05-10T23:38:42.161Z,82.71
2019-05-10T23:41:08.674Z,82.79
2019-05-10T23:43:34.892Z,82.78
2019-05-10T23:46:01.110Z,82.78
2019-05-10T23:48:27.204Z,83.12
2019-05-10T23:50:53.406Z,82.96
2019-05-10T23:53:19.506Z,82.56
2019-05-10T23:55:45.905Z,82.50
2019-05-10T23:58:12.264Z,82.82
